Time;durP1;ratioP1;P1;durP2;ratioP2;P2;SDS_P1;SDS_P2;PMS_P1;PMS_P2;Temp;Humidity;BMP_temperature;BMP_pressure;BME280_temperature;BME280_humidity;BME280_pressure;Samples;Min_cycle;Max_cycle;Signal;HPM_P1;HPM_P2
2021/06/22 00:01:10;;;;;;;2.95;1.77;;;;;;;;;;5056223;28;20199;-48
2021/06/22 00:03:37;;;;;;;2.28;1.80;;;;;;;;;;5056219;28;20206;-48
2021/06/22 00:06:03;;;;;;;4.43;2.03;;;;;;;;;;5056369;28;20195;-48
2021/06/22 00:08:29;;;;;;;2.67;2.20;;;;;;;;;;5056621;28;20207;-48
2021/06/22 00:10:55;;;;;;;2.17;1.98;;;;;;;;;;5051818;28;20662;-47
2021/06/22 00:13:21;;;;;;;2.22;1.85;;;;;;;;;;5037123;28;20320;-47
2021/06/22 00:15:47;;;;;;;2.92;2.10;;;;;;;;;;5048905;28;20190;-48
2021/06/22 00:18:13;;;;;;;2.85;2.03;;;;;;;;;;5053867;28;20194;-48
2021/06/22 00:20:39;;;;;;;2.60;2.15;;;;;;;;;;5056728;28;20482;-48
2021/06/22 00:23:05;;;;;;;4.07;2.60;;;;;;;;;;5056914;28;20167;-48
2021/06/22 00:25:31;;;;;;;6.32;2.40;;;;;;;;;;5056652;28;20578;-48
2021/06/22 00:27:57;;;;;;;2.97;2.75;;;;;;;;;;5055988;28;20217;-47
2021/06/22 00:30:24;;;;;;;4.15;2.53;;;;;;;;;;5055863;28;20599;-48
2021/06/22 00:32:50;;;;;;;4.25;2.33;;;;;;;;;;5056503;28;20175;-48
2021/06/22 00:35:17;;;;;;;2.22;2.08;;;;;;;;;;5056240;28;20765;-48
2021/06/22 00:37:43;;;;;;;3.90;2.25;;;;;;;;;;5055630;28;20179;-48
2021/06/22 00:40:13;;;;;;;3.92;2.17;;;;;;;;;;5056601;28;20194;-48
2021/06/22 00:42:40;;;;;;;4.55;2.42;;;;;;;;;;5055932;28;20221;-47
2021/06/22 00:45:07;;;;;;;3.83;2.50;;;;;;;;;;5055739;28;20217;-47
2021/06/22 00:47:33;;;;;;;5.45;2.67;;;;;;;;;;5055773;28;20210;-48
2021/06/22 00:49:59;;;;;;;2.83;2.60;;;;;;;;;;5056025;28;20233;-48
2021/06/22 00:52:27;;;;;;;3.47;2.78;;;;;;;;;;5055696;28;20183;-47
2021/06/22 00:54:54;;;;;;;4.70;3.08;;;;;;;;;;5056018;28;20442;-48
2021/06/22 00:57:21;;;;;;;3.15;2.85;;;;;;;;;;5054197;28;20178;-48
2021/06/22 00:59:47;;;;;;;6.40;2.78;;;;;;;;;;5055760;28;20214;-48
2021/06/22 01:02:13;;;;;;;3.45;2.50;;;;;;;;;;5055776;28;20346;-48
2021/06/22 01:04:39;;;;;;;2.67;2.47;;;;;;;;;;5055505;28;20566;-47
2021/06/22 01:07:05;;;;;;;3.63;2.70;;;;;;;;;;5054855;28;20178;-48
2021/06/22 01:09:31;;;;;;;2.70;2.50;;;;;;;;;;5055775;28;20210;-47
2021/06/22 01:11:58;;;;;;;3.00;2.80;;;;;;;;;;5055238;28;20541;-47
2021/06/22 01:14:27;;;;;;;2.97;2.67;;;;;;;;;;5055379;28;20236;-47
2021/06/22 01:16:54;;;;;;;2.80;2.50;;;;;;;;;;5054169;28;20175;-48
2021/06/22 01:19:20;;;;;;;3.60;3.20;;;;;;;;;;5055127;28;20202;-47
2021/06/22 01:21:47;;;;;;;3.10;2.90;;;;;;;;;;5055079;28;20188;-47
2021/06/22 01:24:21;;;;;;;3.05;2.75;;;;;;;;;;5055563;28;20558;-47
2021/06/22 01:26:50;;;;;;;4.18;2.80;;;;;;;;;;5054707;28;20360;-47
2021/06/22 01:29:16;;;;;;;3.58;2.75;;;;;;;;;;5054723;28;20451;-47
2021/06/22 01:31:42;;;;;;;3.20;3.00;;;;;;;;;;5051412;28;20175;-47
2021/06/22 01:34:09;;;;;;;5.68;2.85;;;;;;;;;;5048363;28;20175;-47
2021/06/22 01:36:36;;;;;;;2.92;2.63;;;;;;;;;;5054886;28;20217;-47
2021/06/22 01:39:05;;;;;;;3.72;3.42;;;;;;;;;;5054359;28;20183;-47
2021/06/22 01:41:32;;;;;;;3.55;3.25;;;;;;;;;;5055210;28;20186;-47
2021/06/22 01:43:59;;;;;;;4.18;2.53;;;;;;;;;;5055110;28;20273;-47
2021/06/22 01:46:25;;;;;;;3.67;3.00;;;;;;;;;;5053828;28;20203;-47
2021/06/22 01:48:51;;;;;;;4.60;3.00;;;;;;;;;;5054759;28;20513;-47
2021/06/22 01:51:17;;;;;;;2.83;2.63;;;;;;;;;;5054865;28;20556;-47
2021/06/22 01:53:49;;;;;;;4.50;3.80;;;;;;;;;;5054450;28;20176;-47
2021/06/22 01:56:15;;;;;;;7.15;4.35;;;;;;;;;;5054146;28;20191;-47
2021/06/22 01:58:41;;;;;;;4.20;3.80;;;;;;;;;;5054713;28;20458;-47
2021/06/22 02:01:07;;;;;;;3.53;3.15;;;;;;;;;;5053130;28;20227;-47
2021/06/22 02:03:33;;;;;;;4.07;3.25;;;;;;;;;;5035805;28;20188;-47
2021/06/22 02:05:59;;;;;;;3.08;2.78;;;;;;;;;;5039042;28;20201;-47
2021/06/22 02:08:26;;;;;;;3.30;3.08;;;;;;;;;;5053421;28;20270;-47
2021/06/22 02:10:52;;;;;;;2.83;2.63;;;;;;;;;;5054227;28;20189;-47
2021/06/22 02:13:20;;;;;;;3.35;3.03;;;;;;;;;;5054764;28;20206;-47
2021/06/22 02:15:46;;;;;;;5.30;2.58;;;;;;;;;;5054002;28;20178;-47
2021/06/22 02:18:12;;;;;;;2.67;2.47;;;;;;;;;;5053798;28;20190;-47
2021/06/22 02:20:39;;;;;;;3.28;2.50;;;;;;;;;;5054490;28;20175;-47
2021/06/22 02:23:05;;;;;;;3.22;2.75;;;;;;;;;;5054557;28;20171;-47
2021/06/22 02:25:31;;;;;;;3.83;2.78;;;;;;;;;;5054555;28;20534;-47
2021/06/22 02:28:01;;;;;;;4.50;3.20;;;;;;;;;;5053419;28;20262;-47
2021/06/22 02:30:27;;;;;;;2.78;2.58;;;;;;;;;;5053961;28;20262;-47
2021/06/22 02:32:53;;;;;;;2.80;2.60;;;;;;;;;;5041332;28;20250;-47
2021/06/22 02:35:19;;;;;;;2.30;2.10;;;;;;;;;;5034346;28;20206;-47
2021/06/22 02:37:50;;;;;;;2.25;2.15;;;;;;;;;;5053093;28;20194;-47
2021/06/22 02:40:16;;;;;;;3.25;2.40;;;;;;;;;;5054510;28;20163;-47
2021/06/22 02:42:42;;;;;;;2.70;2.50;;;;;;;;;;5053919;28;20265;-47
2021/06/22 02:45:09;;;;;;;6.03;2.50;;;;;;;;;;5054075;28;20252;-47
2021/06/22 02:47:35;;;;;;;2.53;2.10;;;;;;;;;;5053426;28;20187;-47
2021/06/22 02:50:01;;;;;;;2.38;2.00;;;;;;;;;;5053647;28;20177;-47
2021/06/22 02:52:27;;;;;;;2.28;2.08;;;;;;;;;;5054345;28;20222;-47
2021/06/22 02:54:53;;;;;;;2.13;1.90;;;;;;;;;;5054192;28;20195;-47
2021/06/22 02:57:19;;;;;;;2.40;2.20;;;;;;;;;;5053010;28;20183;-47
2021/06/22 02:59:45;;;;;;;4.97;2.45;;;;;;;;;;5054126;28;20175;-47
2021/06/22 03:02:11;;;;;;;1.90;1.80;;;;;;;;;;5053267;28;20195;-47
2021/06/22 03:04:37;;;;;;;2.13;1.92;;;;;;;;;;5053912;28;20179;-47
2021/06/22 03:07:03;;;;;;;2.35;2.08;;;;;;;;;;5053544;28;20194;-47
2021/06/22 03:09:30;;;;;;;2.22;2.03;;;;;;;;;;5053453;28;20209;-47
2021/06/22 03:11:56;;;;;;;2.25;2.05;;;;;;;;;;5054135;28;20171;-47
2021/06/22 03:14:22;;;;;;;2.17;2.03;;;;;;;;;;5053631;28;20277;-47
2021/06/22 03:16:49;;;;;;;2.92;2.72;;;;;;;;;;5053244;28;20187;-47
2021/06/22 03:19:15;;;;;;;2.63;2.42;;;;;;;;;;5053616;28;20262;-47
2021/06/22 03:21:43;;;;;;;2.65;2.00;;;;;;;;;;5054195;28;20188;-47
2021/06/22 03:24:13;;;;;;;1.98;1.50;;;;;;;;;;5053639;28;20437;-47
2021/06/22 03:26:39;;;;;;;2.00;1.80;;;;;;;;;;5053073;28;20207;-47
2021/06/22 03:29:05;;;;;;;1.90;1.80;;;;;;;;;;5053936;28;20175;-47
2021/06/22 03:31:31;;;;;;;3.55;2.13;;;;;;;;;;5053462;28;20465;-47
2021/06/22 03:33:57;;;;;;;2.60;1.58;;;;;;;;;;5054068;28;20175;-47
2021/06/22 03:36:23;;;;;;;1.70;1.60;;;;;;;;;;5053226;28;20619;-47
2021/06/22 03:38:49;;;;;;;2.50;1.90;;;;;;;;;;5053439;28;20258;-47
2021/06/22 03:41:15;;;;;;;1.70;1.60;;;;;;;;;;5057682;28;20202;-47
2021/06/22 03:43:42;;;;;;;1.83;1.73;;;;;;;;;;5057246;28;20183;-47
2021/06/22 03:46:08;;;;;;;3.38;1.80;;;;;;;;;;5055920;28;20481;-47
2021/06/22 03:48:34;;;;;;;1.88;1.40;;;;;;;;;;5057105;28;20179;-47
2021/06/22 03:51:00;;;;;;;1.65;1.45;;;;;;;;;;5057477;28;20211;-47
2021/06/22 03:53:26;;;;;;;2.78;1.50;;;;;;;;;;5056447;28;20186;-47
2021/06/22 03:55:53;;;;;;;2.28;1.27;;;;;;;;;;5056456;28;20186;-47
2021/06/22 03:58:19;;;;;;;1.40;1.30;;;;;;;;;;5056889;28;20192;-47
2021/06/22 04:00:45;;;;;;;2.95;1.20;;;;;;;;;;5056414;28;20547;-47
2021/06/22 04:03:15;;;;;;;1.88;1.63;;;;;;;;;;5045795;28;20183;-47
2021/06/22 04:05:41;;;;;;;1.73;1.20;;;;;;;;;;5056528;28;20198;-47
2021/06/22 04:08:07;;;;;;;1.27;1.17;;;;;;;;;;5056361;28;20215;-47
2021/06/22 04:10:34;;;;;;;0.90;0.90;;;;;;;;;;5056260;28;20176;-47
2021/06/22 04:13:00;;;;;;;1.52;1.42;;;;;;;;;;5056962;28;20171;-47
2021/06/22 04:15:26;;;;;;;1.63;1.33;;;;;;;;;;5055832;28;20242;-47
2021/06/22 04:17:52;;;;;;;1.83;1.40;;;;;;;;;;5055889;28;20179;-47
2021/06/22 04:20:18;;;;;;;2.72;1.40;;;;;;;;;;5056383;28;20190;-47
2021/06/22 04:22:45;;;;;;;2.33;1.08;;;;;;;;;;5056734;28;20179;-47
2021/06/22 04:25:11;;;;;;;3.75;0.77;;;;;;;;;;5056361;28;20597;-47
2021/06/22 04:27:37;;;;;;;1.92;1.58;;;;;;;;;;5054845;28;20171;-47
2021/06/22 04:30:04;;;;;;;5.32;1.67;;;;;;;;;;5054445;28;20179;-47
2021/06/22 04:32:30;;;;;;;5.68;1.60;;;;;;;;;;5055151;28;20175;-47
2021/06/22 04:34:56;;;;;;;7.18;1.95;;;;;;;;;;5054908;28;20214;-47
2021/06/22 04:37:22;;;;;;;2.58;1.80;;;;;;;;;;5054569;28;20194;-47
2021/06/22 04:39:48;;;;;;;3.95;1.40;;;;;;;;;;5055255;28;20645;-47
2021/06/22 04:42:14;;;;;;;1.83;1.52;;;;;;;;;;5055705;28;20213;-47
2021/06/22 04:44:40;;;;;;;2.60;1.80;;;;;;;;;;5055618;28;20175;-47
2021/06/22 04:47:06;;;;;;;3.78;2.58;;;;;;;;;;5055772;28;20187;-47
2021/06/22 04:49:32;;;;;;;2.55;2.00;;;;;;;;;;5055796;28;20305;-47
2021/06/22 04:51:58;;;;;;;1.63;1.35;;;;;;;;;;5054991;28;20195;-47
2021/06/22 04:54:24;;;;;;;1.85;1.50;;;;;;;;;;5056107;28;20260;-47
2021/06/22 04:56:51;;;;;;;3.47;1.63;;;;;;;;;;5055310;28;20546;-47
2021/06/22 04:59:17;;;;;;;1.63;1.52;;;;;;;;;;5055604;28;20183;-47
2021/06/22 05:01:43;;;;;;;3.33;1.35;;;;;;;;;;5055495;28;20269;-47
2021/06/22 05:04:11;;;;;;;5.15;1.33;;;;;;;;;;5055671;28;20176;-47
2021/06/22 05:06:37;;;;;;;3.55;1.50;;;;;;;;;;5055224;28;20198;-47
2021/06/22 05:09:03;;;;;;;2.85;1.40;;;;;;;;;;5055319;28;20187;-47
2021/06/22 05:11:29;;;;;;;1.95;1.80;;;;;;;;;;5045627;28;20573;-47
2021/06/22 05:13:56;;;;;;;2.88;1.65;;;;;;;;;;5047949;28;20179;-47
2021/06/22 05:16:22;;;;;;;1.52;1.42;;;;;;;;;;5054842;28;20183;-47
2021/06/22 05:18:48;;;;;;;1.83;1.63;;;;;;;;;;5054971;28;20548;-47
2021/06/22 05:21:15;;;;;;;1.50;1.40;;;;;;;;;;5055661;28;20555;-47
2021/06/22 05:23:41;;;;;;;2.38;2.17;;;;;;;;;;5055923;28;20423;-47
2021/06/22 05:26:06;;;;;;;3.22;1.85;;;;;;;;;;5054319;28;20195;-47
2021/06/22 05:28:32;;;;;;;3.67;2.50;;;;;;;;;;5055013;28;20187;-47
2021/06/22 05:30:58;;;;;;;4.38;1.60;;;;;;;;;;5055186;28;20179;-47
2021/06/22 05:33:24;;;;;;;3.63;2.53;;;;;;;;;;5038204;28;20214;-47
2021/06/22 05:35:50;;;;;;;2.17;1.90;;;;;;;;;;5048035;28;20187;-47
2021/06/22 05:38:16;;;;;;;2.50;2.25;;;;;;;;;;5055075;28;20203;-47
2021/06/22 05:40:42;;;;;;;3.00;2.42;;;;;;;;;;5055045;28;20193;-47
2021/06/22 05:43:08;;;;;;;3.13;2.83;;;;;;;;;;5054759;28;20193;-47
2021/06/22 05:45:35;;;;;;;2.72;2.53;;;;;;;;;;5054935;28;20241;-47
2021/06/22 05:48:00;;;;;;;3.50;3.20;;;;;;;;;;5054300;28;20497;-47
2021/06/22 05:50:26;;;;;;;3.53;2.97;;;;;;;;;;5055069;28;20261;-47
2021/06/22 05:52:53;;;;;;;3.00;2.70;;;;;;;;;;5054759;28;20179;-47
2021/06/22 05:55:23;;;;;;;3.05;2.67;;;;;;;;;;5054322;28;20290;-47
2021/06/22 05:57:53;;;;;;;3.33;3.00;;;;;;;;;;5041772;28;20211;-47
2021/06/22 06:00:21;;;;;;;3.97;3.58;;;;;;;;;;5054428;28;20519;-47
2021/06/22 06:02:49;;;;;;;3.35;3.05;;;;;;;;;;5054436;28;20171;-47
2021/06/22 06:05:15;;;;;;;3.20;2.80;;;;;;;;;;5054311;28;20248;-47
2021/06/22 06:07:41;;;;;;;3.25;2.97;;;;;;;;;;5054207;28;20167;-47
2021/06/22 06:10:08;;;;;;;4.95;2.97;;;;;;;;;;5054924;28;20772;-46
2021/06/22 06:12:34;;;;;;;3.75;3.17;;;;;;;;;;5037641;28;20221;-47
2021/06/22 06:15:00;;;;;;;3.05;2.85;;;;;;;;;;5052897;28;20279;-47
2021/06/22 06:17:26;;;;;;;3.03;2.83;;;;;;;;;;5059775;28;20174;-47
2021/06/22 06:19:52;;;;;;;5.28;2.97;;;;;;;;;;5060001;28;20226;-47
2021/06/22 06:22:18;;;;;;;4.55;3.17;;;;;;;;;;5047236;28;20575;-47
2021/06/22 06:24:45;;;;;;;3.55;2.72;;;;;;;;;;5051341;28;20612;-47
2021/06/22 06:27:19;;;;;;;3.35;3.05;;;;;;;;;;5054251;28;20179;-47
2021/06/22 06:32:12;;;;;;;4.72;2.90;;;;;;;;;;5054432;28;20579;-47
2021/06/22 06:34:38;;;;;;;3.10;2.80;;;;;;;;;;5054127;28;20221;-47
2021/06/22 06:37:04;;;;;;;4.68;3.10;;;;;;;;;;5052547;28;20562;-47
2021/06/22 06:39:30;;;;;;;3.70;3.40;;;;;;;;;;5052326;28;20289;-47
2021/06/22 06:41:56;;;;;;;3.75;3.17;;;;;;;;;;5053307;28;20306;-47
2021/06/22 06:44:22;;;;;;;3.90;3.28;;;;;;;;;;5053525;28;20198;-47
2021/06/22 06:46:48;;;;;;;4.30;3.10;;;;;;;;;;5051517;28;20508;-47
2021/06/22 06:49:14;;;;;;;3.25;2.50;;;;;;;;;;5053772;28;20190;-47
2021/06/22 06:51:40;;;;;;;4.32;3.22;;;;;;;;;;5053390;28;20262;-47
2021/06/22 06:54:06;;;;;;;6.03;3.47;;;;;;;;;;5053913;28;20183;-47
2021/06/22 06:56:32;;;;;;;4.63;3.28;;;;;;;;;;5053437;28;20559;-47
2021/06/22 06:58:58;;;;;;;3.10;2.88;;;;;;;;;;5053825;28;20190;-47
2021/06/22 07:01:24;;;;;;;3.78;3.15;;;;;;;;;;5053336;28;20703;-47
2021/06/22 07:03:50;;;;;;;3.50;3.20;;;;;;;;;;5044179;28;20605;-46
2021/06/22 07:06:16;;;;;;;4.03;3.20;;;;;;;;;;5052952;28;20202;-47
2021/06/22 07:08:42;;;;;;;4.07;3.53;;;;;;;;;;5053947;28;20183;-47
2021/06/22 07:11:08;;;;;;;3.28;2.97;;;;;;;;;;5047036;28;20180;-47
2021/06/22 07:13:34;;;;;;;3.20;2.75;;;;;;;;;;5052812;28;20171;-47
2021/06/22 07:16:00;;;;;;;3.13;2.70;;;;;;;;;;5056386;28;20251;-47
2021/06/22 07:18:29;;;;;;;4.63;3.30;;;;;;;;;;5057407;28;20258;-47
2021/06/22 07:20:56;;;;;;;3.80;3.42;;;;;;;;;;5057117;28;20175;-47
2021/06/22 07:23:22;;;;;;;4.38;3.55;;;;;;;;;;5057686;28;20266;-47
2021/06/22 07:25:48;;;;;;;6.25;3.45;;;;;;;;;;5057223;28;20286;-46
2021/06/22 07:28:14;;;;;;;3.90;3.20;;;;;;;;;;5052465;28;20183;-47
2021/06/22 07:30:40;;;;;;;4.15;3.08;;;;;;;;;;5056523;28;20186;-47
2021/06/22 07:33:06;;;;;;;8.75;3.28;;;;;;;;;;5055378;28;20702;-47
2021/06/22 07:35:33;;;;;;;6.03;3.10;;;;;;;;;;5056029;28;20175;-47
2021/06/22 07:37:59;;;;;;;7.60;2.78;;;;;;;;;;5055804;28;20194;-47
2021/06/22 07:40:25;;;;;;;5.13;3.10;;;;;;;;;;5054867;28;20546;-47
2021/06/22 07:42:53;;;;;;;5.63;2.97;;;;;;;;;;5053994;28;20187;-47
2021/06/22 07:45:20;;;;;;;3.20;2.90;;;;;;;;;;5055882;28;20195;-47
2021/06/22 07:47:46;;;;;;;4.22;2.75;;;;;;;;;;5056271;28;20798;-47
2021/06/22 07:50:13;;;;;;;2.90;2.53;;;;;;;;;;5056215;28;20180;-47
2021/06/22 07:52:39;;;;;;;3.75;2.60;;;;;;;;;;5056753;28;20190;-46
2021/06/22 07:55:06;;;;;;;2.65;2.40;;;;;;;;;;5056412;28;20565;-47
2021/06/22 07:57:32;;;;;;;4.80;2.47;;;;;;;;;;5056682;28;20444;-47
2021/06/22 07:59:58;;;;;;;2.20;2.00;;;;;;;;;;5055883;28;20578;-47
2021/06/22 08:02:24;;;;;;;4.00;2.20;;;;;;;;;;5056778;28;20179;-46
2021/06/22 08:04:50;;;;;;;3.67;2.20;;;;;;;;;;5056447;28;20276;-47
2021/06/22 08:07:16;;;;;;;2.70;2.00;;;;;;;;;;5056656;28;20183;-47
2021/06/22 08:09:42;;;;;;;2.20;2.05;;;;;;;;;;5056217;28;20365;-47
2021/06/22 08:12:09;;;;;;;2.30;2.10;;;;;;;;;;5056317;28;20187;-47
2021/06/22 08:14:35;;;;;;;2.13;1.73;;;;;;;;;;5056263;28;20175;-47
2021/06/22 08:17:01;;;;;;;2.30;2.00;;;;;;;;;;5055371;28;20178;-47
2021/06/22 08:19:27;;;;;;;2.22;1.70;;;;;;;;;;5056222;28;20203;-47
2021/06/22 08:21:53;;;;;;;2.47;1.80;;;;;;;;;;5056344;28;20218;-47
2021/06/22 08:24:19;;;;;;;4.03;1.60;;;;;;;;;;5056479;28;20175;-47
2021/06/22 08:26:45;;;;;;;2.50;1.63;;;;;;;;;;5055464;28;20545;-47
2021/06/22 08:29:11;;;;;;;3.10;1.58;;;;;;;;;;5056256;28;20207;-47
2021/06/22 08:31:37;;;;;;;2.70;2.33;;;;;;;;;;5055603;28;20188;-47
2021/06/22 08:34:03;;;;;;;2.40;2.05;;;;;;;;;;5056166;28;20175;-47
2021/06/22 08:36:29;;;;;;;2.55;1.83;;;;;;;;;;5055774;28;20187;-47
2021/06/22 08:38:56;;;;;;;2.10;1.90;;;;;;;;;;5055503;28;20207;-47
2021/06/22 08:41:24;;;;;;;1.63;1.52;;;;;;;;;;5054956;28;20183;-47
2021/06/22 08:43:51;;;;;;;1.55;1.30;;;;;;;;;;5056314;28;20221;-47
2021/06/22 08:46:17;;;;;;;1.63;1.30;;;;;;;;;;5054699;28;20195;-47
2021/06/22 08:48:43;;;;;;;1.70;1.50;;;;;;;;;;5055659;28;20250;-47
2021/06/22 08:51:09;;;;;;;2.42;1.52;;;;;;;;;;5055907;28;20281;-47
2021/06/22 08:53:35;;;;;;;2.40;1.45;;;;;;;;;;5056204;28;20179;-47
2021/06/22 08:56:01;;;;;;;2.22;1.40;;;;;;;;;;5055306;28;20180;-47
2021/06/22 08:58:27;;;;;;;1.50;1.40;;;;;;;;;;5055768;28;20179;-47
2021/06/22 09:00:54;;;;;;;1.95;1.58;;;;;;;;;;5054874;28;20176;-47
2021/06/22 09:03:24;;;;;;;1.92;1.70;;;;;;;;;;5056108;28;20175;-47
2021/06/22 09:05:51;;;;;;;2.75;1.77;;;;;;;;;;5055346;28;20199;-47
2021/06/22 09:08:25;;;;;;;2.20;2.00;;;;;;;;;;5055439;28;20179;-47
2021/06/22 09:10:53;;;;;;;1.80;1.40;;;;;;;;;;5053579;28;20250;-47
2021/06/22 09:13:26;;;;;;;2.33;1.88;;;;;;;;;;5055141;28;20171;-47
2021/06/22 09:15:55;;;;;;;1.85;1.55;;;;;;;;;;5054257;28;20445;-47
2021/06/22 09:18:24;;;;;;;5.82;1.85;;;;;;;;;;5050675;28;20194;-47
2021/06/22 09:20:50;;;;;;;4.90;2.10;;;;;;;;;;5055220;28;20175;-47
2021/06/22 09:23:18;;;;;;;4.10;1.98;;;;;;;;;;5054586;28;20186;-47
2021/06/22 09:25:45;;;;;;;2.10;1.90;;;;;;;;;;5052801;28;20531;-47
2021/06/22 09:28:11;;;;;;;3.60;2.25;;;;;;;;;;5054577;28;20254;-47
2021/06/22 09:30:45;;;;;;;5.38;2.35;;;;;;;;;;5054783;28;20175;-47
2021/06/22 09:33:11;;;;;;;3.08;2.30;;;;;;;;;;5055497;28;20538;-47
2021/06/22 09:35:37;;;;;;;2.55;2.35;;;;;;;;;;5054045;28;20175;-47
2021/06/22 09:38:04;;;;;;;2.85;2.63;;;;;;;;;;5039109;28;20281;-47
2021/06/22 09:40:30;;;;;;;5.22;2.30;;;;;;;;;;5054727;28;20217;-47
2021/06/22 09:42:56;;;;;;;2.95;2.67;;;;;;;;;;5055307;28;20183;-47
2021/06/22 09:45:23;;;;;;;2.90;2.45;;;;;;;;;;5054684;28;20277;-47
2021/06/22 09:47:49;;;;;;;4.05;2.50;;;;;;;;;;5054353;28;20198;-47
2021/06/22 09:50:51;;;;;;;3.63;2.50;;;;;;;;;;5041333;28;20179;-47
2021/06/22 09:53:23;;;;;;;4.70;2.67;;;;;;;;;;4993975;28;20434;-47
2021/06/22 09:55:49;;;;;;;3.10;2.80;;;;;;;;;;5044538;28;20213;-47
2021/06/22 09:58:15;;;;;;;3.25;2.30;;;;;;;;;;5054443;28;20190;-47
2021/06/22 10:00:41;;;;;;;3.33;2.75;;;;;;;;;;5054361;28;20180;-47
2021/06/22 10:03:08;;;;;;;2.67;2.42;;;;;;;;;;5054843;28;20175;-47
2021/06/22 10:05:54;;;;;;;8.38;3.20;;;;;;;;;;5053533;28;20199;-47
2021/06/22 10:08:20;;;;;;;2.90;2.55;;;;;;;;;;5050528;28;20260;-47
2021/06/22 10:10:46;;;;;;;3.65;2.20;;;;;;;;;;5053869;28;20214;-47
2021/06/22 10:13:31;;;;;;;3.03;2.72;;;;;;;;;;5054339;28;20219;-47
2021/06/22 10:16:16;;;;;;;5.97;2.45;;;;;;;;;;5049035;28;20175;-47
2021/06/22 10:18:42;;;;;;;3.80;2.60;;;;;;;;;;5053876;28;20546;-47
2021/06/22 10:21:08;;;;;;;4.75;2.55;;;;;;;;;;5054796;28;20186;-47
2021/06/22 10:23:34;;;;;;;3.00;2.75;;;;;;;;;;5054941;28;20221;-47
2021/06/22 10:26:00;;;;;;;5.47;2.60;;;;;;;;;;5053910;28;20199;-47
2021/06/22 10:28:27;;;;;;;2.70;2.50;;;;;;;;;;5054095;28;20241;-47
2021/06/22 10:30:53;;;;;;;3.25;2.20;;;;;;;;;;5054286;28;20210;-47
2021/06/22 10:33:19;;;;;;;2.78;2.30;;;;;;;;;;5038244;28;20559;-47
2021/06/22 10:35:45;;;;;;;3.03;2.08;;;;;;;;;;5036847;28;20185;-47
2021/06/22 10:38:12;;;;;;;2.58;2.35;;;;;;;;;;5053316;28;20183;-47
2021/06/22 10:40:38;;;;;;;3.28;2.50;;;;;;;;;;5054155;28;20186;-47
2021/06/22 10:43:07;;;;;;;4.85;2.53;;;;;;;;;;5054141;28;20163;-47
2021/06/22 10:45:52;;;;;;;3.70;2.70;;;;;;;;;;5053800;28;20199;-47
2021/06/22 10:48:19;;;;;;;3.17;2.53;;;;;;;;;;5053426;28;20221;-47
2021/06/22 10:50:45;;;;;;;3.33;2.90;;;;;;;;;;5057748;28;20182;-47
2021/06/22 10:53:11;;;;;;;4.63;2.85;;;;;;;;;;5058131;28;20171;-47
2021/06/22 10:55:41;;;;;;;3.30;3.00;;;;;;;;;;5058272;28;20246;-47
2021/06/22 10:58:08;;;;;;;6.13;2.92;;;;;;;;;;5057218;28;20175;-47
2021/06/22 11:00:40;;;;;;;3.10;2.85;;;;;;;;;;5057513;28;20181;-47
2021/06/22 11:03:19;;;;;;;3.85;2.95;;;;;;;;;;5043514;28;20183;-47
2021/06/22 11:05:45;;;;;;;4.28;2.60;;;;;;;;;;5040184;28;20226;-47
2021/06/22 11:08:16;;;;;;;2.78;2.40;;;;;;;;;;5057517;28;20214;-47
2021/06/22 11:10:55;;;;;;;2.60;2.40;;;;;;;;;;5054299;28;20176;-47
2021/06/22 11:13:33;;;;;;;2.83;2.63;;;;;;;;;;5046291;28;20603;-47
2021/06/22 11:16:04;;;;;;;3.00;2.30;;;;;;;;;;5056881;28;20225;-47
2021/06/22 11:18:49;;;;;;;2.92;2.63;;;;;;;;;;5046498;28;20213;-47
2021/06/22 11:21:17;;;;;;;4.13;2.85;;;;;;;;;;5057887;28;20180;-47
2021/06/22 11:24:06;;;;;;;3.10;2.20;;;;;;;;;;5057727;28;20190;-47
2021/06/22 11:27:00;;;;;;;3.90;2.40;;;;;;;;;;5048856;28;20731;-47
2021/06/22 11:29:32;;;;;;;2.40;2.20;;;;;;;;;;5057278;28;20282;-47
2021/06/22 11:31:59;;;;;;;5.10;2.08;;;;;;;;;;5057447;28;20579;-47
2021/06/22 11:34:33;;;;;;;2.65;2.33;;;;;;;;;;5057556;28;20543;-47
2021/06/22 11:36:59;;;;;;;2.40;2.20;;;;;;;;;;5055874;28;20187;-47
2021/06/22 11:39:39;;;;;;;3.50;2.50;;;;;;;;;;5057323;28;20202;-47
2021/06/22 11:42:10;;;;;;;3.60;3.30;;;;;;;;;;5057418;28;20273;-47
2021/06/22 11:44:37;;;;;;;4.13;2.70;;;;;;;;;;5057092;28;20171;-47
2021/06/22 11:47:27;;;;;;;3.03;2.55;;;;;;;;;;5056420;28;20242;-47
2021/06/22 11:49:54;;;;;;;2.40;2.30;;;;;;;;;;5018250;28;20199;-47
2021/06/22 11:52:22;;;;;;;3.13;2.83;;;;;;;;;;5037038;28;20214;-47
2021/06/22 11:54:52;;;;;;;3.20;2.90;;;;;;;;;;5037204;28;20164;-47
2021/06/22 11:57:27;;;;;;;3.00;2.80;;;;;;;;;;5050528;28;20513;-47
2021/06/22 11:59:55;;;;;;;3.40;3.00;;;;;;;;;;5055626;28;20175;-47
2021/06/22 12:02:21;;;;;;;3.55;2.65;;;;;;;;;;5056886;28;20258;-47
2021/06/22 12:04:48;;;;;;;4.55;2.88;;;;;;;;;;5057194;28;20172;-47
2021/06/22 12:07:15;;;;;;;2.97;2.72;;;;;;;;;;5052309;28;20286;-47
2021/06/22 12:09:42;;;;;;;2.78;2.58;;;;;;;;;;5056808;28;20167;-47
2021/06/22 12:12:08;;;;;;;4.18;3.05;;;;;;;;;;5056466;28;20228;-47
2021/06/22 12:14:35;;;;;;;3.65;3.10;;;;;;;;;;5056132;28;20190;-47
2021/06/22 12:17:12;;;;;;;3.13;2.92;;;;;;;;;;5056268;28;20190;-47
2021/06/22 12:19:39;;;;;;;4.88;2.60;;;;;;;;;;5056592;28;20183;-47
2021/06/22 12:22:05;;;;;;;2.75;2.55;;;;;;;;;;5056421;28;20505;-47
2021/06/22 12:24:31;;;;;;;2.90;2.60;;;;;;;;;;5056773;28;20195;-47
2021/06/22 12:26:57;;;;;;;2.60;2.40;;;;;;;;;;5055650;28;20241;-47
2021/06/22 12:29:24;;;;;;;3.53;2.92;;;;;;;;;;5056167;28;20263;-47
2021/06/22 12:32:06;;;;;;;2.85;2.65;;;;;;;;;;5054934;28;20253;-47
2021/06/22 12:34:33;;;;;;;3.28;2.88;;;;;;;;;;5056565;28;20172;-47
2021/06/22 12:37:00;;;;;;;3.15;2.85;;;;;;;;;;5055836;28;20172;-46
2021/06/22 12:39:26;;;;;;;3.13;2.92;;;;;;;;;;5055825;28;20495;-47
2021/06/22 12:42:02;;;;;;;3.75;3.45;;;;;;;;;;5056405;28;20197;-47
2021/06/22 12:44:28;;;;;;;3.33;3.13;;;;;;;;;;5054095;28;20492;-47
2021/06/22 12:46:54;;;;;;;4.38;3.47;;;;;;;;;;5055486;28;20535;-47
2021/06/22 12:49:25;;;;;;;3.97;3.60;;;;;;;;;;5056017;28;20604;-47
2021/06/22 12:51:56;;;;;;;4.15;3.30;;;;;;;;;;5055958;28;20629;-47
2021/06/22 12:54:25;;;;;;;3.97;3.70;;;;;;;;;;5056264;28;20225;-47
2021/06/22 12:56:56;;;;;;;4.78;4.28;;;;;;;;;;5055027;28;20451;-47
2021/06/22 12:59:23;;;;;;;5.38;4.20;;;;;;;;;;5055558;28;20236;-47
2021/06/22 13:01:53;;;;;;;4.78;4.18;;;;;;;;;;5050095;28;20180;-47
2021/06/22 13:04:19;;;;;;;7.13;4.43;;;;;;;;;;5035797;28;20689;-47
2021/06/22 13:06:46;;;;;;;5.57;5.07;;;;;;;;;;5048028;28;20234;-47
2021/06/22 13:09:12;;;;;;;5.63;4.47;;;;;;;;;;5055922;28;20168;-47
2021/06/22 13:11:41;;;;;;;5.40;4.90;;;;;;;;;;5043729;28;20184;-47
2021/06/22 13:14:07;;;;;;;5.78;5.28;;;;;;;;;;5051087;28;20179;-47
2021/06/22 13:16:33;;;;;;;5.97;5.47;;;;;;;;;;5054829;28;20277;-47
2021/06/22 13:19:02;;;;;;;7.05;6.30;;;;;;;;;;5055027;28;20197;-47
2021/06/22 13:21:39;;;;;;;5.88;5.47;;;;;;;;;;5055667;28;20218;-47
2021/06/22 13:24:05;;;;;;;5.60;5.15;;;;;;;;;;5055855;28;20177;-47
2021/06/22 13:26:32;;;;;;;6.13;5.63;;;;;;;;;;5054940;28;20203;-47
2021/06/22 13:28:59;;;;;;;6.25;5.65;;;;;;;;;;5055383;28;20534;-47
2021/06/22 13:31:25;;;;;;;5.70;5.30;;;;;;;;;;5055054;28;20189;-47
2021/06/22 13:34:06;;;;;;;5.82;5.25;;;;;;;;;;5035563;28;20222;-47
2021/06/22 13:36:32;;;;;;;5.95;5.47;;;;;;;;;;5043771;28;20257;-47
2021/06/22 13:39:02;;;;;;;9.65;5.35;;;;;;;;;;5055314;28;20185;-47
2021/06/22 13:41:28;;;;;;;5.80;5.30;;;;;;;;;;5055376;28;20175;-47
2021/06/22 13:43:54;;;;;;;5.47;4.97;;;;;;;;;;5050100;28;20179;-47
2021/06/22 13:46:22;;;;;;;6.88;4.88;;;;;;;;;;5054094;28;20278;-47
2021/06/22 13:48:54;;;;;;;6.20;4.72;;;;;;;;;;5054943;28;20171;-47
2021/06/22 13:51:26;;;;;;;5.18;4.78;;;;;;;;;;5054860;28;20589;-47
2021/06/22 13:54:02;;;;;;;6.57;5.10;;;;;;;;;;5053622;28;20178;-47
2021/06/22 13:56:28;;;;;;;5.90;5.32;;;;;;;;;;5054073;28;20175;-47
2021/06/22 13:58:54;;;;;;;5.55;4.70;;;;;;;;;;5055173;28;20190;-47
2021/06/22 14:01:20;;;;;;;7.28;5.30;;;;;;;;;;5054708;28;20221;-47
2021/06/22 14:03:46;;;;;;;6.75;4.90;;;;;;;;;;5054923;28;20274;-47
2021/06/22 14:06:12;;;;;;;5.55;5.05;;;;;;;;;;5050863;28;20203;-47
2021/06/22 14:08:39;;;;;;;5.82;4.78;;;;;;;;;;5054520;28;20201;-47
2021/06/22 14:11:05;;;;;;;5.07;4.60;;;;;;;;;;5054885;28;20546;-47
2021/06/22 14:13:31;;;;;;;6.45;5.25;;;;;;;;;;5054390;28;20615;-47
2021/06/22 14:15:59;;;;;;;5.35;4.40;;;;;;;;;;5053532;28;20183;-47
2021/06/22 14:18:25;;;;;;;5.22;4.82;;;;;;;;;;5054540;28;20195;-47
2021/06/22 14:20:52;;;;;;;5.15;4.75;;;;;;;;;;5054786;28;20234;-47
2021/06/22 14:23:18;;;;;;;5.30;4.88;;;;;;;;;;5054102;28;20175;-47
2021/06/22 14:25:44;;;;;;;5.10;4.70;;;;;;;;;;5053917;28;20238;-47
2021/06/22 14:28:14;;;;;;;6.60;5.00;;;;;;;;;;5054182;28;20501;-47
2021/06/22 14:30:40;;;;;;;5.30;4.80;;;;;;;;;;5053966;28;20176;-47
2021/06/22 14:33:07;;;;;;;4.70;4.30;;;;;;;;;;5046869;28;20194;-47
2021/06/22 14:35:33;;;;;;;5.18;4.78;;;;;;;;;;5054526;28;20254;-47
2021/06/22 14:37:59;;;;;;;4.97;4.32;;;;;;;;;;5053509;28;20186;-47
2021/06/22 14:40:26;;;;;;;5.05;4.60;;;;;;;;;;5053949;28;20171;-47
2021/06/22 14:42:52;;;;;;;4.57;4.13;;;;;;;;;;5053804;28;20466;-47
2021/06/22 14:45:20;;;;;;;4.40;4.10;;;;;;;;;;5053819;28;20213;-47
2021/06/22 14:47:46;;;;;;;4.35;3.97;;;;;;;;;;5053511;28;20262;-47